Time;durP1;ratioP1;P1;durP2;ratioP2;P2;SDS_P1;SDS_P2;PMS_P1;PMS_P2;Temp;Humidity;BMP_temperature;BMP_pressure;BME280_temperature;BME280_humidity;BME280_pressure;Samples;Min_cycle;Max_cycle;Signal;HPM_P1;HPM_P2
2023/11/03 00:00:39;;;;;;;4.28;1.40;;;10.70;99.90;;;;;;4265751;27;20115;-58
2023/11/03 00:02:43;;;;;;;4.53;1.25;;;10.70;99.90;;;;;;4255442;27;20047;-59
2023/11/03 00:04:45;;;;;;;5.82;1.80;;;10.60;99.90;;;;;;4264574;27;20047;-58
2023/11/03 00:06:49;;;;;;;8.98;1.70;;;10.60;99.90;;;;;;4264341;27;20050;-66
2023/11/03 00:08:52;;;;;;;5.28;1.40;;;10.60;99.90;;;;;;4259834;27;20043;-60
2023/11/03 00:10:56;;;;;;;6.20;1.85;;;10.60;99.90;;;;;;4248822;27;20073;-59
2023/11/03 00:13:02;;;;;;;5.15;1.60;;;10.50;99.90;;;;;;4234239;27;20042;-56
2023/11/03 00:15:06;;;;;;;10.55;1.73;;;10.50;99.90;;;;;;4231550;28;20122;-56
2023/11/03 00:17:08;;;;;;;3.58;1.45;;;10.50;99.90;;;;;;4253355;27;20035;-57
2023/11/03 00:19:10;;;;;;;5.10;1.60;;;10.50;99.90;;;;;;4265988;27;20070;-55
2023/11/03 00:21:15;;;;;;;5.43;1.60;;;10.60;99.90;;;;;;4265107;27;20484;-55
2023/11/03 00:23:17;;;;;;;4.78;1.40;;;10.50;99.90;;;;;;4259121;27;20055;-56
2023/11/03 00:25:19;;;;;;;4.28;1.25;;;10.50;99.90;;;;;;4232830;27;20044;-56
2023/11/03 00:27:23;;;;;;;4.05;1.40;;;10.50;99.90;;;;;;4249180;27;20103;-56
2023/11/03 00:29:26;;;;;;;6.03;1.30;;;10.60;99.90;;;;;;4264297;27;20514;-56
2023/11/03 00:31:28;;;;;;;6.07;1.50;;;10.50;99.90;;;;;;4264939;27;20042;-56
2023/11/03 00:33:30;;;;;;;5.70;1.55;;;10.60;99.90;;;;;;4256500;27;20401;-56
2023/11/03 00:35:34;;;;;;;4.13;1.60;;;10.60;99.90;;;;;;4260759;27;20050;-56
2023/11/03 00:37:38;;;;;;;4.57;1.65;;;10.60;99.90;;;;;;4264249;27;20523;-59
2023/11/03 00:39:41;;;;;;;5.47;1.55;;;10.60;99.90;;;;;;4253379;27;20091;-59
2023/11/03 00:41:43;;;;;;;4.60;1.20;;;10.50;99.90;;;;;;4264957;27;20384;-59
2023/11/03 00:43:46;;;;;;;4.90;1.23;;;10.50;99.90;;;;;;4257035;27;20071;-59
2023/11/03 00:45:48;;;;;;;4.60;1.40;;;10.50;99.90;;;;;;4260121;27;20043;-63
2023/11/03 00:47:51;;;;;;;5.82;1.75;;;10.50;99.90;;;;;;4264097;27;20049;-60
2023/11/03 00:49:53;;;;;;;5.78;1.60;;;10.60;99.90;;;;;;4264873;27;20043;-65
2023/11/03 00:51:55;;;;;;;5.25;1.60;;;10.50;99.90;;;;;;4249830;28;20047;-68
2023/11/03 00:53:57;;;;;;;4.72;1.65;;;10.50;99.90;;;;;;4255991;27;20100;-59
2023/11/03 00:55:59;;;;;;;6.82;1.60;;;10.50;99.90;;;;;;4262659;27;20046;-60
2023/11/03 00:58:03;;;;;;;7.05;1.67;;;10.50;99.90;;;;;;4267049;27;20070;-59
2023/11/03 01:00:12;;;;;;;4.65;1.30;;;10.60;99.90;;;;;;4262654;27;20039;-61
2023/11/03 01:02:15;;;;;;;4.35;1.40;;;10.50;99.90;;;;;;4251655;28;20045;-59
2023/11/03 01:04:18;;;;;;;4.60;1.35;;;10.50;99.90;;;;;;4258048;27;20486;-59
2023/11/03 01:06:22;;;;;;;4.43;1.30;;;10.50;99.90;;;;;;4257034;27;20465;-59
2023/11/03 01:08:25;;;;;;;6.25;1.80;;;10.50;99.90;;;;;;4252269;27;20549;-61
2023/11/03 01:10:28;;;;;;;6.40;1.88;;;10.40;99.90;;;;;;4256311;27;20039;-67
2023/11/03 01:12:30;;;;;;;7.75;1.90;;;10.50;99.90;;;;;;4268661;27;20103;-58
2023/11/03 01:14:32;;;;;;;6.70;1.35;;;10.40;99.90;;;;;;4262540;27;20126;-59
2023/11/03 01:16:38;;;;;;;6.70;1.25;;;10.40;99.90;;;;;;4261208;27;20125;-63
2023/11/03 01:18:42;;;;;;;7.47;1.88;;;10.40;99.90;;;;;;4268935;27;20049;-65
2023/11/03 01:20:48;;;;;;;8.13;1.90;;;10.40;99.90;;;;;;4262680;27;20126;-59
2023/11/03 01:22:50;;;;;;;5.28;1.30;;;10.40;99.90;;;;;;4248611;28;20078;-59
2023/11/03 01:24:52;;;;;;;5.30;1.50;;;10.50;99.90;;;;;;4253141;27;20038;-58
2023/11/03 01:26:54;;;;;;;6.00;1.60;;;10.50;99.90;;;;;;4254693;27;20054;-58
2023/11/03 01:28:57;;;;;;;6.38;1.85;;;10.40;99.90;;;;;;4248382;27;20135;-58
2023/11/03 01:30:59;;;;;;;6.68;1.50;;;10.30;99.90;;;;;;4263189;27;20125;-58
2023/11/03 01:33:03;;;;;;;3.15;1.48;;;10.30;99.90;;;;;;4248260;28;20047;-59
2023/11/03 01:35:06;;;;;;;7.70;1.60;;;10.30;99.90;;;;;;4249335;27;20054;-58
2023/11/03 01:37:08;;;;;;;4.65;1.60;;;10.30;99.90;;;;;;4256328;27;20419;-58
2023/11/03 01:39:11;;;;;;;5.80;1.88;;;10.30;99.90;;;;;;4265232;27;20405;-59
2023/11/03 01:41:15;;;;;;;10.68;1.98;;;10.30;99.90;;;;;;4252840;27;20047;-61
2023/11/03 01:43:17;;;;;;;6.10;1.55;;;10.30;99.90;;;;;;4229430;28;20459;-59
2023/11/03 01:45:20;;;;;;;6.90;1.70;;;10.30;99.90;;;;;;4251586;27;20449;-58
2023/11/03 01:47:22;;;;;;;3.60;1.17;;;10.40;99.90;;;;;;4257108;27;20075;-58
2023/11/03 01:49:25;;;;;;;5.70;1.60;;;10.30;99.90;;;;;;4249481;28;20116;-60
2023/11/03 01:51:28;;;;;;;8.00;1.67;;;10.40;99.90;;;;;;4261154;27;20102;-69
2023/11/03 01:53:31;;;;;;;4.40;1.25;;;10.30;99.90;;;;;;4253277;27;20070;-58
2023/11/03 01:55:34;;;;;;;3.28;1.20;;;10.20;99.90;;;;;;4235413;27;20040;-57
2023/11/03 01:57:38;;;;;;;7.07;1.52;;;10.10;99.90;;;;;;4261203;27;20043;-58
2023/11/03 01:59:40;;;;;;;2.42;0.85;;;10.20;99.90;;;;;;4250819;27;20066;-59
2023/11/03 02:01:45;;;;;;;6.05;1.33;;;10.10;99.90;;;;;;4261151;27;20074;-59
2023/11/03 02:03:48;;;;;;;5.68;1.42;;;10.20;99.90;;;;;;4251968;27;20043;-58
2023/11/03 02:05:52;;;;;;;5.10;1.70;;;10.10;99.90;;;;;;4251123;27;20077;-58
2023/11/03 02:07:54;;;;;;;7.68;1.63;;;10.20;99.90;;;;;;4260758;27;20468;-59
2023/11/03 02:09:56;;;;;;;4.45;1.20;;;10.10;99.90;;;;;;4249945;27;20051;-58
2023/11/03 02:11:58;;;;;;;12.25;1.65;;;10.10;99.90;;;;;;4259860;27;20465;-58
2023/11/03 02:14:01;;;;;;;10.27;1.77;;;10.10;99.90;;;;;;4252512;27;20130;-59
2023/11/03 02:16:04;;;;;;;5.55;1.25;;;10.10;99.90;;;;;;4251046;27;20120;-58
2023/11/03 02:18:08;;;;;;;4.93;1.40;;;10.10;99.90;;;;;;4266560;27;20039;-58
2023/11/03 02:20:11;;;;;;;6.10;1.65;;;10.10;99.90;;;;;;4266586;27;20066;-58
2023/11/03 02:22:14;;;;;;;4.57;1.27;;;10.10;99.90;;;;;;4257640;27;20055;-58
2023/11/03 02:24:18;;;;;;;5.05;1.60;;;10.10;99.90;;;;;;4263792;27;20438;-59
2023/11/03 02:26:20;;;;;;;6.25;1.70;;;10.10;99.90;;;;;;4265289;27;20166;-59
2023/11/03 02:28:22;;;;;;;4.28;1.20;;;10.10;99.90;;;;;;4255135;27;20225;-59
2023/11/03 02:30:25;;;;;;;8.43;1.60;;;10.10;99.90;;;;;;4267046;27;20095;-58
2023/11/03 02:32:27;;;;;;;9.05;1.77;;;10.10;99.90;;;;;;4258332;27;20047;-58
2023/11/03 02:34:29;;;;;;;7.53;1.90;;;10.10;99.90;;;;;;4262233;27;20189;-58
2023/11/03 02:36:32;;;;;;;8.07;1.80;;;10.10;99.90;;;;;;4264793;27;20038;-58
2023/11/03 02:38:34;;;;;;;5.15;1.25;;;10.00;99.90;;;;;;4255065;27;20132;-58
2023/11/03 02:40:38;;;;;;;7.47;1.58;;;10.00;99.90;;;;;;4266873;27;20053;-59
2023/11/03 02:42:41;;;;;;;6.38;1.80;;;9.90;99.90;;;;;;4258903;27;20066;-58
2023/11/03 02:44:43;;;;;;;7.32;1.40;;;9.90;99.90;;;;;;4261214;27;20064;-58
2023/11/03 02:46:45;;;;;;;5.82;1.40;;;10.00;99.90;;;;;;4265066;27;20047;-58
2023/11/03 02:48:47;;;;;;;10.13;1.75;;;10.00;99.90;;;;;;4254605;27;20042;-65
2023/11/03 02:50:50;;;;;;;9.05;2.15;;;10.00;99.90;;;;;;4266410;27;20042;-58
2023/11/03 02:52:52;;;;;;;5.68;1.63;;;9.90;99.90;;;;;;4260543;27;20396;-58
2023/11/03 02:54:54;;;;;;;10.05;1.60;;;10.00;99.90;;;;;;4241471;27;20039;-58
2023/11/03 02:56:58;;;;;;;9.68;2.20;;;9.90;99.90;;;;;;4266285;27;20389;-61
2023/11/03 02:59:00;;;;;;;4.40;1.70;;;9.90;99.90;;;;;;4254044;27;20067;-58
2023/11/03 03:01:02;;;;;;;6.95;1.73;;;10.00;99.90;;;;;;4266704;27;20049;-58
2023/11/03 03:03:07;;;;;;;11.20;1.80;;;10.00;99.90;;;;;;4261137;27;20448;-65
2023/11/03 03:05:10;;;;;;;8.13;1.70;;;10.00;99.90;;;;;;4258592;27;20067;-58
2023/11/03 03:07:12;;;;;;;10.25;2.15;;;10.10;99.90;;;;;;4266286;27;20066;-58
2023/11/03 03:09:15;;;;;;;10.25;2.35;;;10.10;99.90;;;;;;4254113;27;20072;-58
2023/11/03 03:11:17;;;;;;;8.93;1.90;;;10.00;99.90;;;;;;4267287;27;20047;-61
2023/11/03 03:13:21;;;;;;;10.48;2.03;;;10.00;99.90;;;;;;4263734;27;20050;-59
2023/11/03 03:15:23;;;;;;;6.50;1.77;;;10.10;99.90;;;;;;4258646;27;20388;-59
2023/11/03 03:17:25;;;;;;;6.07;1.85;;;10.10;99.90;;;;;;4267773;27;20043;-59
2023/11/03 03:19:27;;;;;;;10.68;1.83;;;10.10;99.90;;;;;;4262464;27;20039;-58
2023/11/03 03:21:29;;;;;;;13.32;2.78;;;10.10;99.90;;;;;;4249461;27;20047;-59
2023/11/03 03:23:31;;;;;;;11.43;2.10;;;10.00;99.90;;;;;;4251104;27;20110;-58
2023/11/03 03:25:34;;;;;;;7.68;1.73;;;10.00;99.90;;;;;;4258820;27;20496;-58
2023/11/03 03:27:36;;;;;;;11.85;2.40;;;10.00;99.90;;;;;;4248717;27;20397;-58
2023/11/03 03:29:40;;;;;;;13.15;2.45;;;10.00;99.90;;;;;;4259202;27;20138;-59
2023/11/03 03:31:42;;;;;;;7.10;1.65;;;10.10;99.90;;;;;;4249784;27;20035;-59
2023/11/03 03:33:44;;;;;;;11.57;2.67;;;10.00;99.80;;;;;;4249983;27;20047;-56
2023/11/03 03:35:46;;;;;;;9.77;2.17;;;10.00;99.90;;;;;;4259570;27;20046;-56
2023/11/03 03:37:48;;;;;;;10.45;2.30;;;10.00;99.90;;;;;;4248494;27;20039;-56
2023/11/03 03:39:50;;;;;;;11.27;2.55;;;10.00;99.90;;;;;;4257757;27;20126;-56
2023/11/03 03:41:52;;;;;;;10.50;2.08;;;9.90;99.70;;;;;;4251125;27;20048;-56
2023/11/03 03:43:54;;;;;;;11.82;2.45;;;9.90;99.90;;;;;;4249456;27;20042;-57
2023/11/03 03:45:58;;;;;;;8.70;1.90;;;9.90;99.90;;;;;;4259643;27;20040;-56
2023/11/03 03:48:00;;;;;;;8.85;1.92;;;9.90;99.90;;;;;;4248635;27;20047;-56
2023/11/03 03:50:02;;;;;;;7.63;1.98;;;9.90;99.90;;;;;;4237997;27;20050;-55
2023/11/03 03:52:06;;;;;;;6.97;2.00;;;10.00;99.90;;;;;;4252807;27;20048;-58
2023/11/03 03:54:08;;;;;;;12.15;2.50;;;10.10;99.90;;;;;;4249822;27;20038;-62
2023/11/03 03:56:11;;;;;;;9.00;2.08;;;10.10;99.90;;;;;;4259785;27;20084;-55
2023/11/03 03:58:14;;;;;;;8.73;1.92;;;10.10;99.90;;;;;;4248317;27;20113;-56
2023/11/03 04:00:18;;;;;;;10.25;2.30;;;10.00;99.90;;;;;;4257359;27;20068;-58
2023/11/03 04:02:22;;;;;;;10.15;2.67;;;9.90;99.90;;;;;;4255222;27;20043;-56
2023/11/03 04:04:25;;;;;;;8.68;2.13;;;9.90;99.90;;;;;;4249187;27;20485;-56
2023/11/03 04:06:27;;;;;;;9.13;2.47;;;9.90;99.90;;;;;;4253555;27;20107;-56
2023/11/03 04:08:29;;;;;;;12.65;2.55;;;9.90;99.90;;;;;;4265339;27;20049;-56
2023/11/03 04:10:31;;;;;;;11.32;2.30;;;9.90;99.90;;;;;;4239881;27;20046;-56
2023/11/03 04:12:34;;;;;;;11.10;2.55;;;9.90;99.90;;;;;;4258793;27;20082;-55
2023/11/03 04:14:36;;;;;;;6.43;1.83;;;9.90;99.90;;;;;;4263713;27;20117;-59
2023/11/03 04:16:38;;;;;;;10.40;1.98;;;9.90;99.90;;;;;;4252545;27;20453;-58
2023/11/03 04:18:42;;;;;;;6.97;1.75;;;9.80;99.90;;;;;;4264867;27;20073;-58
2023/11/03 04:20:44;;;;;;;7.72;2.08;;;9.80;99.90;;;;;;4260347;27;20491;-58
2023/11/03 04:22:46;;;;;;;8.80;2.15;;;9.80;99.90;;;;;;4264632;27;20062;-58
2023/11/03 04:24:48;;;;;;;8.88;1.95;;;9.70;99.90;;;;;;4264496;27;20075;-56
2023/11/03 04:26:50;;;;;;;13.00;2.78;;;9.80;99.90;;;;;;4252082;27;20047;-59
2023/11/03 04:28:52;;;;;;;10.73;2.42;;;9.70;99.90;;;;;;4264663;27;20041;-59
2023/11/03 04:30:54;;;;;;;7.15;1.70;;;9.70;99.90;;;;;;4260345;27;20419;-58
2023/11/03 04:32:56;;;;;;;8.20;2.35;;;9.70;99.90;;;;;;4255949;27;20083;-58
2023/11/03 04:35:00;;;;;;;12.00;2.17;;;9.70;99.90;;;;;;4264873;27;20046;-59
2023/11/03 04:37:02;;;;;;;7.05;2.10;;;9.70;99.90;;;;;;4252113;27;20126;-58
2023/11/03 04:39:05;;;;;;;10.35;2.63;;;9.80;99.90;;;;;;4263969;27;20058;-58
2023/11/03 04:41:07;;;;;;;6.20;1.98;;;9.80;99.90;;;;;;4261486;27;20039;-58
2023/11/03 04:43:09;;;;;;;9.55;2.13;;;9.80;99.90;;;;;;4254422;27;20488;-56
2023/11/03 04:45:11;;;;;;;10.27;2.20;;;9.90;99.90;;;;;;4264289;27;20050;-58
2023/11/03 04:47:14;;;;;;;11.90;1.95;;;10.00;99.90;;;;;;4253321;27;20075;-58
2023/11/03 04:49:18;;;;;;;8.75;1.90;;;9.90;99.90;;;;;;4263025;27;20043;-59
2023/11/03 04:51:22;;;;;;;12.70;2.20;;;10.00;99.90;;;;;;4260606;27;20058;-58
2023/11/03 04:53:24;;;;;;;9.20;2.28;;;10.00;99.90;;;;;;4258665;27;20047;-58
2023/11/03 04:55:26;;;;;;;10.07;2.17;;;9.90;99.90;;;;;;4248063;28;20070;-56
2023/11/03 04:57:28;;;;;;;5.97;1.90;;;9.80;99.90;;;;;;4258928;27;20511;-56
2023/11/03 04:59:30;;;;;;;9.32;2.35;;;9.80;99.90;;;;;;4252879;27;20479;-56
2023/11/03 05:01:33;;;;;;;9.13;2.10;;;9.80;99.90;;;;;;4249270;27;20055;-55
2023/11/03 05:03:35;;;;;;;10.82;1.85;;;9.70;99.90;;;;;;4259143;27;20059;-57
2023/11/03 05:05:38;;;;;;;9.90;2.30;;;9.70;99.90;;;;;;4247589;28;20191;-56
2023/11/03 05:07:41;;;;;;;7.45;2.25;;;9.70;99.90;;;;;;4256389;27;20102;-56
2023/11/03 05:09:44;;;;;;;11.68;2.58;;;9.70;99.90;;;;;;4251438;27;20043;-55
2023/11/03 05:11:46;;;;;;;12.90;2.95;;;9.70;99.90;;;;;;4249799;27;20499;-55
2023/11/03 05:13:48;;;;;;;12.38;2.55;;;9.70;99.90;;;;;;4252729;27;20043;-56
2023/11/03 05:15:50;;;;;;;10.05;2.03;;;9.70;99.90;;;;;;4264905;27;20043;-59
2023/11/03 05:17:52;;;;;;;7.72;1.92;;;9.70;99.90;;;;;;4260440;27;20392;-56
2023/11/03 05:19:54;;;;;;;9.43;2.42;;;9.70;99.90;;;;;;4264689;27;20047;-55
2023/11/03 05:21:56;;;;;;;10.63;2.40;;;9.60;99.90;;;;;;4262751;27;20055;-56
2023/11/03 05:24:00;;;;;;;10.13;2.17;;;9.60;99.90;;;;;;4254430;27;20043;-57
2023/11/03 05:26:03;;;;;;;10.43;2.53;;;9.60;99.90;;;;;;4267870;27;20085;-57
2023/11/03 05:28:05;;;;;;;12.32;2.53;;;9.60;99.90;;;;;;4262147;27;20126;-56
2023/11/03 05:30:08;;;;;;;9.80;2.20;;;9.70;99.90;;;;;;4262706;27;20046;-57
2023/11/03 05:32:12;;;;;;;8.35;1.70;;;9.50;99.90;;;;;;4249002;27;20538;-55
2023/11/03 05:34:19;;;;;;;13.60;2.97;;;9.60;99.90;;;;;;4263572;27;20079;-62
2023/11/03 05:36:21;;;;;;;8.82;2.13;;;9.60;99.90;;;;;;4251259;27;20051;-57
2023/11/03 05:38:23;;;;;;;11.10;2.85;;;9.60;99.90;;;;;;4257541;27;20136;-57
2023/11/03 05:40:28;;;;;;;14.65;2.45;;;9.60;99.90;;;;;;4257369;27;20062;-58
2023/11/03 05:42:30;;;;;;;8.40;2.65;;;9.60;99.90;;;;;;4249772;27;20051;-59
2023/11/03 05:44:33;;;;;;;8.88;2.10;;;9.60;99.90;;;;;;4237248;27;20067;-59
2023/11/03 05:46:35;;;;;;;9.50;2.03;;;9.40;99.90;;;;;;4267351;27;20427;-59
2023/11/03 05:48:37;;;;;;;9.95;2.13;;;9.50;99.90;;;;;;4262192;27;20047;-59
2023/11/03 05:50:39;;;;;;;12.35;2.70;;;9.40;99.90;;;;;;4259716;27;20042;-59
2023/11/03 05:52:42;;;;;;;7.90;1.95;;;9.30;99.90;;;;;;4267421;27;20501;-59
2023/11/03 05:54:44;;;;;;;10.52;2.75;;;9.20;99.90;;;;;;4263061;27;20049;-59
2023/11/03 05:56:48;;;;;;;7.97;2.03;;;9.20;99.90;;;;;;4249844;27;20126;-59
2023/11/03 05:58:51;;;;;;;12.07;2.65;;;9.20;99.90;;;;;;4253914;27;20050;-56
2023/11/03 06:00:54;;;;;;;11.32;2.28;;;9.20;99.90;;;;;;4258608;27;20070;-56
2023/11/03 06:02:57;;;;;;;13.23;2.60;;;9.20;99.90;;;;;;4250299;27;20126;-56
2023/11/03 06:04:59;;;;;;;9.48;2.00;;;9.20;99.90;;;;;;4261914;27;20053;-56
2023/11/03 06:07:06;;;;;;;11.10;2.20;;;9.20;99.90;;;;;;4250356;27;20385;-59
2023/11/03 06:09:11;;;;;;;11.85;2.90;;;9.20;99.90;;;;;;4253106;27;20543;-55
2023/11/03 06:11:16;;;;;;;8.20;2.53;;;9.20;99.90;;;;;;4258532;27;20122;-58
2023/11/03 06:13:20;;;;;;;11.05;2.75;;;9.20;99.90;;;;;;4251732;27;20043;-68
2023/11/03 06:15:22;;;;;;;12.77;2.22;;;9.20;99.90;;;;;;4265665;27;20069;-60
2023/11/03 06:17:24;;;;;;;5.85;2.00;;;9.20;99.90;;;;;;4235341;27;20134;-59
2023/11/03 06:19:26;;;;;;;8.57;1.95;;;9.30;99.90;;;;;;4263145;27;20166;-59
2023/11/03 06:21:29;;;;;;;11.43;2.08;;;9.30;99.90;;;;;;4259218;27;20052;-57
2023/11/03 06:23:31;;;;;;;9.00;2.53;;;9.20;99.90;;;;;;4249655;27;20039;-56
2023/11/03 06:25:33;;;;;;;8.70;2.28;;;9.20;99.90;;;;;;4241957;27;20498;-56
2023/11/03 06:27:35;;;;;;;14.50;2.80;;;9.30;99.90;;;;;;4232708;27;20126;-56
2023/11/03 06:29:38;;;;;;;12.75;2.85;;;9.20;99.90;;;;;;4251184;27;20043;-56
2023/11/03 06:31:40;;;;;;;7.55;2.20;;;9.20;99.90;;;;;;4260438;27;20043;-56
2023/11/03 06:33:42;;;;;;;9.00;2.53;;;9.20;99.90;;;;;;4249490;27;20408;-56
2023/11/03 06:35:44;;;;;;;13.30;2.50;;;9.20;99.90;;;;;;4259185;27;20046;-56
2023/11/03 06:37:48;;;;;;;14.00;1.80;;;9.10;99.90;;;;;;4265899;27;20047;-56
2023/11/03 06:39:53;;;;;;;10.57;2.00;;;9.20;99.90;;;;;;4264831;27;20039;-56
2023/11/03 06:41:55;;;;;;;12.60;2.10;;;9.20;99.90;;;;;;4254768;27;20070;-56
2023/11/03 06:43:57;;;;;;;11.35;2.45;;;9.30;99.90;;;;;;4266711;27;20074;-60
2023/11/03 06:46:01;;;;;;;11.60;2.03;;;9.20;99.90;;;;;;4258366;27;20082;-60
2023/11/03 06:48:05;;;;;;;17.13;2.60;;;9.20;99.90;;;;;;4265462;27;20091;-56
2023/11/03 06:50:09;;;;;;;15.07;2.58;;;9.20;99.90;;;;;;4264974;27;20042;-56
2023/11/03 06:52:12;;;;;;;12.63;2.40;;;9.20;99.90;;;;;;4236837;27;20096;-56
2023/11/03 06:54:14;;;;;;;9.38;2.08;;;9.20;99.90;;;;;;4266626;27;20042;-56
2023/11/03 06:56:16;;;;;;;14.20;2.50;;;9.30;99.90;;;;;;4257610;27;20047;-56
2023/11/03 06:58:18;;;;;;;8.45;2.38;;;9.20;99.90;;;;;;4262053;27;20062;-55
2023/11/03 07:00:21;;;;;;;10.23;2.25;;;9.20;99.90;;;;;;4264092;27;20046;-58
2023/11/03 07:02:24;;;;;;;13.68;2.70;;;9.20;99.90;;;;;;4264053;27;20048;-56
2023/11/03 07:04:27;;;;;;;10.32;2.95;;;9.20;99.90;;;;;;4266279;27;20415;-56
2023/11/03 07:06:29;;;;;;;11.07;2.58;;;9.30;99.90;;;;;;4258280;27;20108;-57
2023/11/03 07:08:32;;;;;;;9.20;2.40;;;9.20;99.90;;;;;;4260880;27;20043;-56
2023/11/03 07:10:36;;;;;;;10.52;2.00;;;9.00;99.90;;;;;;4264122;27;20140;-56
2023/11/03 07:12:38;;;;;;;7.33;2.50;;;9.20;99.90;;;;;;4254583;27;20053;-56
2023/11/03 07:14:40;;;;;;;15.60;2.88;;;9.30;99.90;;;;;;4266336;27;20039;-56
2023/11/03 07:16:45;;;;;;;12.88;3.03;;;9.20;99.90;;;;;;4259258;27;20072;-56
2023/11/03 07:18:49;;;;;;;;;;;9.20;99.90;;;;;;4262550;27;20043;-56
2023/11/03 07:20:51;;;;;;;10.80;2.13;;;9.20;99.90;;;;;;4264135;27;20326;-57
2023/11/03 07:22:53;;;;;;;15.77;2.83;;;9.20;99.90;;;;;;4254982;27;20050;-56
2023/11/03 07:24:55;;;;;;;8.57;2.53;;;9.20;99.90;;;;;;4265518;27;20054;-56
2023/11/03 07:26:58;;;;;;;11.73;2.80;;;9.20;99.90;;;;;;4259845;27;20046;-56
2023/11/03 07:29:00;;;;;;;13.15;2.70;;;9.20;99.90;;;;;;4258544;27;20449;-56
2023/11/03 07:31:03;;;;;;;13.20;2.50;;;9.30;99.90;;;;;;4265210;27;20081;-56
2023/11/03 07:33:07;;;;;;;12.45;2.90;;;9.40;99.90;;;;;;4253269;27;20108;-56
2023/11/03 07:35:11;;;;;;;8.13;2.47;;;9.50;99.90;;;;;;4265661;27;20126;-56
2023/11/03 07:37:13;;;;;;;16.13;3.08;;;9.50;99.90;;;;;;4242230;27;20056;-56
2023/11/03 07:39:15;;;;;;;11.10;2.58;;;9.50;99.90;;;;;;4257691;27;20135;-56
2023/11/03 07:41:17;;;;;;;13.90;3.08;;;9.50;99.90;;;;;;4265576;27;20135;-56
2023/11/03 07:43:19;;;;;;;13.95;2.97;;;9.50;99.90;;;;;;4252232;27;20046;-58
2023/11/03 07:45:25;;;;;;;11.75;2.85;;;9.60;99.90;;;;;;4248454;27;20050;-59
2023/11/03 07:47:27;;;;;;;11.90;2.92;;;9.70;99.90;;;;;;4252244;27;20118;-61
2023/11/03 07:49:29;;;;;;;11.73;2.70;;;9.70;99.90;;;;;;4258096;27;20043;-59
2023/11/03 07:51:33;;;;;;;12.07;2.38;;;9.70;99.90;;;;;;4248612;27;20039;-58
2023/11/03 07:53:35;;;;;;;14.88;2.97;;;9.70;99.90;;;;;;4241813;27;20182;-59
2023/11/03 07:55:38;;;;;;;14.75;2.55;;;9.80;99.90;;;;;;4249011;27;20103;-56
2023/11/03 07:57:40;;;;;;;12.48;3.15;;;9.80;99.90;;;;;;4251341;27;20134;-61
2023/11/03 07:59:42;;;;;;;19.05;3.78;;;10.00;99.90;;;;;;4258108;27;20114;-55
2023/11/03 08:01:44;;;;;;;14.48;2.33;;;10.10;99.90;;;;;;4248180;27;20039;-56
2023/11/03 08:03:47;;;;;;;16.92;2.67;;;10.00;99.90;;;;;;4258623;27;20081;-55
2023/11/03 08:05:49;;;;;;;15.23;2.38;;;10.20;99.90;;;;;;4249662;27;20423;-55
2023/11/03 08:07:53;;;;;;;10.43;2.33;;;10.00;99.90;;;;;;4249012;27;20053;-56
2023/11/03 08:09:55;;;;;;;13.15;2.72;;;10.00;99.90;;;;;;4240121;27;20044;-56
2023/11/03 08:11:57;;;;;;;10.82;2.15;;;10.10;99.90;;;;;;4247645;27;20043;-56
2023/11/03 08:13:59;;;;;;;10.48;2.28;;;10.20;99.90;;;;;;4257456;27;20458;-56
2023/11/03 08:16:06;;;;;;;18.95;3.05;;;10.20;99.90;;;;;;4250667;27;20074;-56
2023/11/03 08:18:09;;;;;;;12.68;2.55;;;10.30;99.90;;;;;;4251547;27;20043;-56
2023/11/03 08:20:13;;;;;;;10.32;2.88;;;10.40;99.90;;;;;;4253351;27;20070;-56
2023/11/03 08:22:16;;;;;;;12.20;2.90;;;10.40;99.80;;;;;;4264667;27;20137;-56
2023/11/03 08:24:20;;;;;;;10.57;2.58;;;10.20;99.90;;;;;;4254917;27;20047;-56
2023/11/03 08:26:22;;;;;;;13.63;2.70;;;10.20;99.80;;;;;;4261646;27;20042;-56
2023/11/03 08:28:27;;;;;;;9.30;2.90;;;10.30;99.90;;;;;;4263439;27;20043;-57
2023/11/03 08:30:29;;;;;;;15.75;3.17;;;10.20;99.90;;;;;;4248134;27;20120;-57
2023/11/03 08:32:31;;;;;;;14.77;3.20;;;10.30;99.90;;;;;;4247827;27;20039;-57
2023/11/03 08:34:34;;;;;;;10.38;2.38;;;10.40;99.90;;;;;;4256342;27;20141;-57
2023/11/03 08:36:36;;;;;;;9.32;2.45;;;10.40;99.90;;;;;;4251036;27;20046;-56
2023/11/03 08:38:38;;;;;;;12.48;2.75;;;10.40;99.90;;;;;;4248872;27;20095;-56
2023/11/03 08:40:41;;;;;;;7.28;2.50;;;10.50;99.90;;;;;;4259200;27;20047;-55
2023/11/03 08:42:44;;;;;;;11.10;2.85;;;10.50;99.90;;;;;;4247435;27;20138;-56
2023/11/03 08:44:46;;;;;;;13.43;3.33;;;10.60;99.90;;;;;;4236844;27;20406;-56
2023/11/03 08:46:48;;;;;;;15.65;3.03;;;10.60;99.90;;;;;;4247078;27;20184;-57
2023/11/03 08:48:50;;;;;;;8.30;2.60;;;10.60;99.90;;;;;;4264498;27;20138;-56
2023/11/03 08:50:54;;;;;;;10.30;2.72;;;10.70;99.70;;;;;;4253830;27;20067;-55
2023/11/03 08:52:57;;;;;;;10.45;2.47;;;10.70;99.70;;;;;;4267523;27;20049;-55
2023/11/03 08:55:00;;;;;;;10.05;2.92;;;10.60;99.60;;;;;;4260589;27;20063;-58
2023/11/03 08:57:05;;;;;;;9.63;3.00;;;10.60;99.90;;;;;;4261035;27;20179;-57
2023/11/03 08:59:07;;;;;;;9.27;2.78;;;10.60;99.90;;;;;;4263522;27;20115;-56
2023/11/03 09:01:10;;;;;;;16.27;3.72;;;10.60;99.90;;;;;;4253791;27;20144;-56
2023/11/03 09:03:12;;;;;;;12.88;3.17;;;10.50;99.90;;;;;;4268902;27;20038;-56
2023/11/03 09:05:15;;;;;;;9.23;2.13;;;10.60;99.90;;;;;;4261700;27;20119;-57
2023/11/03 09:07:17;;;;;;;14.50;3.00;;;10.60;99.90;;;;;;4261328;27;20047;-57
2023/11/03 09:09:20;;;;;;;12.68;2.47;;;10.70;99.90;;;;;;4267609;27;20042;-56
2023/11/03 09:11:23;;;;;;;9.68;2.33;;;10.70;99.80;;;;;;4256088;27;20043;-57
2023/11/03 09:13:26;;;;;;;13.38;3.03;;;10.70;99.80;;;;;;4268342;27;20047;-56
2023/11/03 09:15:29;;;;;;;11.23;2.60;;;10.80;99.90;;;;;;4266355;27;20053;-57
2023/11/03 09:17:44;;;;;;;9.57;2.20;;;10.70;99.60;;;;;;4261400;27;20043;-56
2023/11/03 09:19:46;;;;;;;10.15;2.42;;;10.60;99.90;;;;;;4266999;27;20074;-57
2023/11/03 09:21:49;;;;;;;13.73;3.13;;;10.60;99.50;;;;;;4265830;27;20054;-59
2023/11/03 09:23:51;;;;;;;9.48;2.38;;;10.70;99.90;;;;;;4269688;27;20050;-57
2023/11/03 09:25:53;;;;;;;13.23;2.20;;;10.70;99.80;;;;;;4262608;27;20054;-57
2023/11/03 09:27:56;;;;;;;13.70;2.33;;;10.70;99.50;;;;;;4261209;27;20074;-57
2023/11/03 09:30:00;;;;;;;8.65;2.13;;;10.70;99.90;;;;;;4269865;27;20364;-58
2023/11/03 09:32:02;;;;;;;8.10;1.92;;;10.70;99.50;;;;;;4265796;27;20043;-57
2023/11/03 09:34:04;;;;;;;6.43;1.90;;;10.80;99.70;;;;;;4251414;27;20054;-56
2023/11/03 09:36:07;;;;;;;10.45;2.30;;;10.80;99.80;;;;;;4256015;27;20051;-56
2023/11/03 09:38:10;;;;;;;11.73;1.73;;;10.90;99.70;;;;;;4259097;27;20039;-59
2023/11/03 09:40:16;;;;;;;8.43;1.98;;;10.80;99.30;;;;;;4250537;27;20039;-58
2023/11/03 09:42:18;;;;;;;7.63;1.50;;;10.70;99.30;;;;;;4262728;27;20050;-58
2023/11/03 09:44:20;;;;;;;9.60;2.00;;;10.70;99.60;;;;;;4250352;27;20043;-58
2023/11/03 09:46:24;;;;;;;5.80;2.13;;;10.70;99.60;;;;;;4253871;27;20120;-57
2023/11/03 09:48:29;;;;;;;5.30;1.70;;;10.80;99.60;;;;;;4258473;27;20050;-58
2023/11/03 09:50:31;;;;;;;;;;;10.90;99.30;;;;;;4232654;28;20044;-56
2023/11/03 09:52:38;;;;;;;7.43;1.63;;;10.80;99.30;;;;;;4243794;27;20498;-56
2023/11/03 09:54:41;;;;;;;8.00;1.88;;;10.70;99.30;;;;;;4250166;27;20289;-58
2023/11/03 09:56:45;;;;;;;8.13;1.90;;;10.80;99.40;;;;;;4253584;27;20104;-60
2023/11/03 09:58:48;;;;;;;4.70;1.40;;;10.90;99.30;;;;;;4258955;27;20542;-59
2023/11/03 10:00:50;;;;;;;3.50;1.20;;;10.80;99.20;;;;;;4249997;27;20122;-59
2023/11/03 10:02:54;;;;;;;7.45;2.00;;;10.90;99.50;;;;;;4261464;27;20153;-59
2023/11/03 10:04:56;;;;;;;4.22;1.55;;;11.00;99.30;;;;;;4250166;27;20531;-57
2023/11/03 10:06:59;;;;;;;6.03;1.70;;;11.10;99.30;;;;;;4253214;27;20054;-57
2023/11/03 10:09:01;;;;;;;9.32;1.63;;;11.20;99.30;;;;;;4259739;27;20042;-56
2023/11/03 10:11:05;;;;;;;4.22;1.45;;;11.10;98.60;;;;;;4250497;27;20142;-56
2023/11/03 10:13:11;;;;;;;6.97;1.40;;;11.30;99.00;;;;;;4242160;27;20212;-57
2023/11/03 10:15:13;;;;;;;6.38;1.70;;;11.40;98.80;;;;;;4250784;27;20469;-56
2023/11/03 10:17:16;;;;;;;6.78;1.55;;;11.40;98.40;;;;;;4252195;27;20047;-57
2023/11/03 10:19:20;;;;;;;5.15;1.70;;;11.40;98.60;;;;;;4267236;27;20492;-59
2023/11/03 10:21:23;;;;;;;7.80;2.42;;;11.50;98.80;;;;;;4266948;27;20073;-59
2023/11/03 10:23:25;;;;;;;5.20;1.60;;;11.50;98.60;;;;;;4255782;27;20047;-59
2023/11/03 10:25:28;;;;;;;4.55;1.50;;;11.60;98.70;;;;;;4264987;27;20057;-59
2023/11/03 10:27:30;;;;;;;7.43;1.73;;;11.70;98.60;;;;;;4264671;27;20464;-58
2023/11/03 10:29:33;;;;;;;5.32;1.70;;;11.80;98.40;;;;;;4255658;27;20043;-58
2023/11/03 10:31:35;;;;;;;8.63;2.42;;;11.80;98.00;;;;;;4266618;27;20039;-59
2023/11/03 10:33:38;;;;;;;5.68;1.92;;;11.70;98.10;;;;;;4256240;27;20054;-59
2023/11/03 10:35:42;;;;;;;4.18;1.50;;;11.80;98.00;;;;;;4263720;27;20138;-59
2023/11/03 10:37:48;;;;;;;6.38;1.50;;;11.80;98.10;;;;;;4264886;27;20039;-58
2023/11/03 10:39:50;;;;;;;9.77;1.88;;;11.80;98.40;;;;;;4254973;27;20065;-58